sensor_id;sensor_type;location;lat;lon;timestamp;temperature;humidity
12853;DHT22;6495;51.808;7.478;2022-11-03T00:01:47;11.30;99.90
12853;DHT22;6495;51.808;7.478;2022-11-03T00:04:18;11.30;99.90
12853;DHT22;6495;51.808;7.478;2022-11-03T00:06:49;11.30;99.90
12853;DHT22;6495;51.808;7.478;2022-11-03T00:09:18;11.30;99.90
12853;DHT22;6495;51.808;7.478;2022-11-03T00:11:48;11.20;99.90
12853;DHT22;6495;51.808;7.478;2022-11-03T00:14:18;11.20;99.90
12853;DHT22;6495;51.808;7.478;2022-11-03T00:16:47;11.20;99.90
12853;DHT22;6495;51.808;7.478;2022-11-03T00:19:15;11.20;99.90
12853;DHT22;6495;51.808;7.478;2022-11-03T00:21:43;11.20;99.90
12853;DHT22;6495;51.808;7.478;2022-11-03T00:24:12;11.20;99.90
12853;DHT22;6495;51.808;7.478;2022-11-03T00:26:40;11.20;99.90
12853;DHT22;6495;51.808;7.478;2022-11-03T00:29:11;11.10;99.90
12853;DHT22;6495;51.808;7.478;2022-11-03T00:31:41;11.10;99.90
12853;DHT22;6495;51.808;7.478;2022-11-03T00:34:10;11.10;99.90
12853;DHT22;6495;51.808;7.478;2022-11-03T00:36:40;11.10;99.90
12853;DHT22;6495;51.808;7.478;2022-11-03T00:39:09;11.10;99.90
12853;DHT22;6495;51.808;7.478;2022-11-03T00:41:38;11.10;99.90
12853;DHT22;6495;51.808;7.478;2022-11-03T00:44:06;11.10;99.90
12853;DHT22;6495;51.808;7.478;2022-11-03T00:46:37;11.00;99.90
12853;DHT22;6495;51.808;7.478;2022-11-03T00:49:05;11.00;99.90
12853;DHT22;6495;51.808;7.478;2022-11-03T00:51:33;11.00;99.90
12853;DHT22;6495;51.808;7.478;2022-11-03T00:54:03;11.00;99.90
12853;DHT22;6495;51.808;7.478;2022-11-03T00:56:34;10.90;99.90
12853;DHT22;6495;51.808;7.478;2022-11-03T00:59:04;10.90;99.90
12853;DHT22;6495;51.808;7.478;2022-11-03T01:01:35;10.90;99.90
12853;DHT22;6495;51.808;7.478;2022-11-03T01:04:13;10.90;99.90
12853;DHT22;6495;51.808;7.478;2022-11-03T01:07:00;10.80;99.90
12853;DHT22;6495;51.808;7.478;2022-11-03T01:09:30;10.80;99.90
12853;DHT22;6495;51.808;7.478;2022-11-03T01:12:03;10.80;99.90
12853;DHT22;6495;51.808;7.478;2022-11-03T01:14:34;10.80;99.90
12853;DHT22;6495;51.808;7.478;2022-11-03T01:17:06;10.80;99.90
12853;DHT22;6495;51.808;7.478;2022-11-03T01:19:35;10.80;99.90
12853;DHT22;6495;51.808;7.478;2022-11-03T01:22:03;10.80;99.90
12853;DHT22;6495;51.808;7.478;2022-11-03T01:24:37;10.80;99.90
12853;DHT22;6495;51.808;7.478;2022-11-03T01:27:07;10.80;99.90
12853;DHT22;6495;51.808;7.478;2022-11-03T01:29:35;10.80;99.90
12853;DHT22;6495;51.808;7.478;2022-11-03T01:32:05;10.80;99.90
12853;DHT22;6495;51.808;7.478;2022-11-03T01:34:33;10.80;99.90
12853;DHT22;6495;51.808;7.478;2022-11-03T01:37:02;10.80;99.90
12853;DHT22;6495;51.808;7.478;2022-11-03T01:39:31;10.80;99.90
12853;DHT22;6495;51.808;7.478;2022-11-03T01:41:59;10.80;99.90
12853;DHT22;6495;51.808;7.478;2022-11-03T01:44:29;10.80;99.90
12853;DHT22;6495;51.808;7.478;2022-11-03T01:47:14;10.80;99.90
12853;DHT22;6495;51.808;7.478;2022-11-03T01:49:51;10.80;99.90
12853;DHT22;6495;51.808;7.478;2022-11-03T01:52:28;10.80;99.90
12853;DHT22;6495;51.808;7.478;2022-11-03T01:55:05;10.80;99.90
12853;DHT22;6495;51.808;7.478;2022-11-03T01:57:40;10.80;99.90
12853;DHT22;6495;51.808;7.478;2022-11-03T02:00:12;10.80;99.90
12853;DHT22;6495;51.808;7.478;2022-11-03T02:02:42;10.80;99.90
12853;DHT22;6495;51.808;7.478;2022-11-03T02:05:12;10.80;99.90
12853;DHT22;6495;51.808;7.478;2022-11-03T02:07:44;10.80;99.90
12853;DHT22;6495;51.808;7.478;2022-11-03T02:10:16;10.90;99.90
12853;DHT22;6495;51.808;7.478;2022-11-03T02:12:45;10.80;99.90
12853;DHT22;6495;51.808;7.478;2022-11-03T02:15:16;10.90;99.90
12853;DHT22;6495;51.808;7.478;2022-11-03T02:17:49;10.90;99.90
12853;DHT22;6495;51.808;7.478;2022-11-03T02:20:22;10.90;99.90
12853;DHT22;6495;51.808;7.478;2022-11-03T02:23:10;10.90;99.90
12853;DHT22;6495;51.808;7.478;2022-11-03T02:25:50;10.90;99.90
12853;DHT22;6495;51.808;7.478;2022-11-03T02:28:21;10.90;99.90
12853;DHT22;6495;51.808;7.478;2022-11-03T02:30:56;10.90;99.90
12853;DHT22;6495;51.808;7.478;2022-11-03T02:33:38;10.90;99.90
12853;DHT22;6495;51.808;7.478;2022-11-03T02:36:19;10.90;99.90
12853;DHT22;6495;51.808;7.478;2022-11-03T02:38:54;11.00;99.90
12853;DHT22;6495;51.808;7.478;2022-11-03T02:41:27;11.00;99.90
12853;DHT22;6495;51.808;7.478;2022-11-03T02:43:57;11.00;99.90
12853;DHT22;6495;51.808;7.478;2022-11-03T02:46:29;11.00;99.90
12853;DHT22;6495;51.808;7.478;2022-11-03T02:48:59;11.00;99.90
12853;DHT22;6495;51.808;7.478;2022-11-03T02:51:27;11.00;99.90
12853;DHT22;6495;51.808;7.478;2022-11-03T02:54:02;11.00;99.90
12853;DHT22;6495;51.808;7.478;2022-11-03T02:56:39;11.00;99.90
12853;DHT22;6495;51.808;7.478;2022-11-03T02:59:13;11.00;99.90
12853;DHT22;6495;51.808;7.478;2022-11-03T03:01:48;11.00;99.90
12853;DHT22;6495;51.808;7.478;2022-11-03T03:04:25;11.00;99.90
12853;DHT22;6495;51.808;7.478;2022-11-03T03:07:01;11.00;99.90
12853;DHT22;6495;51.808;7.478;2022-11-03T03:09:36;11.00;99.90
12853;DHT22;6495;51.808;7.478;2022-11-03T03:12:09;11.10;99.90
12853;DHT22;6495;51.808;7.478;2022-11-03T03:14:42;11.00;99.90
12853;DHT22;6495;51.808;7.478;2022-11-03T03:17:14;11.00;99.90
12853;DHT22;6495;51.808;7.478;2022-11-03T03:19:52;11.10;99.90
12853;DHT22;6495;51.808;7.478;2022-11-03T03:22:29;11.00;99.90
12853;DHT22;6495;51.808;7.478;2022-11-03T03:25:06;11.10;99.90
12853;DHT22;6495;51.808;7.478;2022-11-03T03:27:41;11.10;99.90
12853;DHT22;6495;51.808;7.478;2022-11-03T03:30:12;11.00;99.90
12853;DHT22;6495;51.808;7.478;2022-11-03T03:32:45;11.00;99.90
12853;DHT22;6495;51.808;7.478;2022-11-03T03:35:17;11.00;99.90
12853;DHT22;6495;51.808;7.478;2022-11-03T03:37:51;11.10;99.90
12853;DHT22;6495;51.808;7.478;2022-11-03T03:40:26;11.00;99.90
12853;DHT22;6495;51.808;7.478;2022-11-03T03:43:00;11.10;99.90
12853;DHT22;6495;51.808;7.478;2022-11-03T03:45:31;11.00;99.90
12853;DHT22;6495;51.808;7.478;2022-11-03T03:48:01;11.10;99.90
12853;DHT22;6495;51.808;7.478;2022-11-03T03:50:34;11.00;99.90
12853;DHT22;6495;51.808;7.478;2022-11-03T03:53:08;11.10;99.90
12853;DHT22;6495;51.808;7.478;2022-11-03T03:55:40;11.10;99.90
12853;DHT22;6495;51.808;7.478;2022-11-03T03:58:13;11.10;99.90
12853;DHT22;6495;51.808;7.478;2022-11-03T04:00:42;11.10;99.90
12853;DHT22;6495;51.808;7.478;2022-11-03T04:03:14;11.10;99.90
12853;DHT22;6495;51.808;7.478;2022-11-03T04:05:44;11.10;99.90
12853;DHT22;6495;51.808;7.478;2022-11-03T04:08:14;11.10;99.90
12853;DHT22;6495;51.808;7.478;2022-11-03T04:10:43;11.10;99.90
12853;DHT22;6495;51.808;7.478;2022-11-03T04:13:33;11.10;99.90
12853;DHT22;6495;51.808;7.478;2022-11-03T04:16:18;11.10;99.90
12853;DHT22;6495;51.808;7.478;2022-11-03T04:19:04;11.10;99.90
12853;DHT22;6495;51.808;7.478;2022-11-03T04:21:49;11.10;99.90
12853;DHT22;6495;51.808;7.478;2022-11-03T04:24:35;11.10;99.90
12853;DHT22;6495;51.808;7.478;2022-11-03T04:27:15;11.10;99.90
12853;DHT22;6495;51.808;7.478;2022-11-03T04:30:06;11.10;99.90
12853;DHT22;6495;51.808;7.478;2022-11-03T04:32:41;11.10;99.90
12853;DHT22;6495;51.808;7.478;2022-11-03T04:35:14;11.10;99.90
12853;DHT22;6495;51.808;7.478;2022-11-03T04:37:44;11.10;99.90
12853;DHT22;6495;51.808;7.478;2022-11-03T04:40:17;11.10;99.90
12853;DHT22;6495;51.808;7.478;2022-11-03T04:42:46;11.10;99.90
12853;DHT22;6495;51.808;7.478;2022-11-03T04:45:21;11.10;99.90
12853;DHT22;6495;51.808;7.478;2022-11-03T04:47:51;11.10;99.90
12853;DHT22;6495;51.808;7.478;2022-11-03T04:50:21;11.10;99.90
12853;DHT22;6495;51.808;7.478;2022-11-03T04:52:54;11.20;99.90
12853;DHT22;6495;51.808;7.478;2022-11-03T04:55:24;11.20;99.90
12853;DHT22;6495;51.808;7.478;2022-11-03T04:57:56;11.20;99.90
12853;DHT22;6495;51.808;7.478;2022-11-03T05:00:28;11.20;99.90
12853;DHT22;6495;51.808;7.478;2022-11-03T05:02:55;11.20;99.90
12853;DHT22;6495;51.808;7.478;2022-11-03T05:05:25;11.20;99.90
12853;DHT22;6495;51.808;7.478;2022-11-03T05:07:54;11.20;99.90
12853;DHT22;6495;51.808;7.478;2022-11-03T05:10:26;11.20;99.90
12853;DHT22;6495;51.808;7.478;2022-11-03T05:12:56;11.20;99.90
12853;DHT22;6495;51.808;7.478;2022-11-03T05:15:31;11.20;99.90
12853;DHT22;6495;51.808;7.478;2022-11-03T05:18:15;11.20;99.90
12853;DHT22;6495;51.808;7.478;2022-11-03T05:20:49;11.20;99.90
12853;DHT22;6495;51.808;7.478;2022-11-03T05:23:20;11.20;99.90
12853;DHT22;6495;51.808;7.478;2022-11-03T05:25:51;11.20;99.90
12853;DHT22;6495;51.808;7.478;2022-11-03T05:28:23;11.10;99.90
12853;DHT22;6495;51.808;7.478;2022-11-03T05:30:54;11.20;99.90
12853;DHT22;6495;51.808;7.478;2022-11-03T05:33:27;11.10;99.90
12853;DHT22;6495;51.808;7.478;2022-11-03T05:35:59;11.20;99.90
12853;DHT22;6495;51.808;7.478;2022-11-03T05:38:31;11.20;99.90
12853;DHT22;6495;51.808;7.478;2022-11-03T05:41:00;11.20;99.90
12853;DHT22;6495;51.808;7.478;2022-11-03T05:43:28;11.20;99.90
12853;DHT22;6495;51.808;7.478;2022-11-03T05:46:00;11.20;99.90
12853;DHT22;6495;51.808;7.478;2022-11-03T05:48:31;11.20;99.90
12853;DHT22;6495;51.808;7.478;2022-11-03T05:51:09;11.20;99.90
12853;DHT22;6495;51.808;7.478;2022-11-03T05:53:43;11.20;99.90
12853;DHT22;6495;51.808;7.478;2022-11-03T05:56:17;11.20;99.90
12853;DHT22;6495;51.808;7.478;2022-11-03T05:58:47;11.20;99.90
12853;DHT22;6495;51.808;7.478;2022-11-03T06:01:23;11.20;99.90
12853;DHT22;6495;51.808;7.478;2022-11-03T06:03:55;11.20;99.90
12853;DHT22;6495;51.808;7.478;2022-11-03T06:06:31;11.20;99.90
12853;DHT22;6495;51.808;7.478;2022-11-03T06:09:04;11.20;99.90
12853;DHT22;6495;51.808;7.478;2022-11-03T06:11:38;11.30;99.90
12853;DHT22;6495;51.808;7.478;2022-11-03T06:14:13;11.30;99.90
12853;DHT22;6495;51.808;7.478;2022-11-03T06:16:52;11.30;99.90
12853;DHT22;6495;51.808;7.478;2022-11-03T06:19:25;11.30;99.90
12853;DHT22;6495;51.808;7.478;2022-11-03T06:21:56;11.30;99.90
12853;DHT22;6495;51.808;7.478;2022-11-03T06:24:29;11.30;99.90
12853;DHT22;6495;51.808;7.478;2022-11-03T06:27:00;11.30;99.90
12853;DHT22;6495;51.808;7.478;2022-11-03T06:29:30;11.30;99.90
12853;DHT22;6495;51.808;7.478;2022-11-03T06:32:01;11.30;99.90
12853;DHT22;6495;51.808;7.478;2022-11-03T06:34:33;11.30;99.90
12853;DHT22;6495;51.808;7.478;2022-11-03T06:37:15;11.30;99.90
12853;DHT22;6495;51.808;7.478;2022-11-03T06:39:46;11.40;99.90
12853;DHT22;6495;51.808;7.478;2022-11-03T06:42:19;11.40;99.90
12853;DHT22;6495;51.808;7.478;2022-11-03T06:44:51;11.40;99.90
12853;DHT22;6495;51.808;7.478;2022-11-03T06:47:22;11.40;99.90
12853;DHT22;6495;51.808;7.478;2022-11-03T06:49:53;11.40;99.90
12853;DHT22;6495;51.808;7.478;2022-11-03T06:52:28;11.40;99.90
12853;DHT22;6495;51.808;7.478;2022-11-03T06:55:22;11.50;99.90
12853;DHT22;6495;51.808;7.478;2022-11-03T06:57:56;11.50;99.90
12853;DHT22;6495;51.808;7.478;2022-11-03T07:00:26;11.50;99.90
12853;DHT22;6495;51.808;7.478;2022-11-03T07:03:06;11.50;99.90
12853;DHT22;6495;51.808;7.478;2022-11-03T07:05:38;11.50;99.90
12853;DHT22;6495;51.808;7.478;2022-11-03T07:08:21;11.50;99.90
12853;DHT22;6495;51.808;7.478;2022-11-03T07:10:57;11.60;99.90
12853;DHT22;6495;51.808;7.478;2022-11-03T07:13:30;11.50;99.90
12853;DHT22;6495;51.808;7.478;2022-11-03T07:16:00;11.60;99.90
12853;DHT22;6495;51.808;7.478;2022-11-03T07:18:33;11.60;99.90
12853;DHT22;6495;51.808;7.478;2022-11-03T07:21:23;11.60;99.90
12853;DHT22;6495;51.808;7.478;2022-11-03T07:23:59;11.60;99.90
12853;DHT22;6495;51.808;7.478;2022-11-03T07:26:31;11.60;99.90
12853;DHT22;6495;51.808;7.478;2022-11-03T07:29:00;11.60;99.90
12853;DHT22;6495;51.808;7.478;2022-11-03T07:31:30;11.60;99.90
12853;DHT22;6495;51.808;7.478;2022-11-03T07:34:00;11.70;99.90
12853;DHT22;6495;51.808;7.478;2022-11-03T07:36:30;11.70;99.90
12853;DHT22;6495;51.808;7.478;2022-11-03T07:39:00;11.70;99.90
12853;DHT22;6495;51.808;7.478;2022-11-03T07:41:32;11.70;99.90
12853;DHT22;6495;51.808;7.478;2022-11-03T07:44:00;11.70;99.90
12853;DHT22;6495;51.808;7.478;2022-11-03T07:46:29;11.70;99.90
12853;DHT22;6495;51.808;7.478;2022-11-03T07:48:58;11.80;99.90
12853;DHT22;6495;51.808;7.478;2022-11-03T07:51:30;11.80;99.90
12853;DHT22;6495;51.808;7.478;2022-11-03T07:54:02;11.80;99.90
12853;DHT22;6495;51.808;7.478;2022-11-03T07:56:39;11.80;99.90
12853;DHT22;6495;51.808;7.478;2022-11-03T07:59:14;11.80;99.90
12853;DHT22;6495;51.808;7.478;2022-11-03T08:01:47;11.80;99.90
12853;DHT22;6495;51.808;7.478;2022-11-03T08:04:21;11.80;99.90
12853;DHT22;6495;51.808;7.478;2022-11-03T08:06:51;11.90;99.90
12853;DHT22;6495;51.808;7.478;2022-11-03T08:09:19;11.90;99.90
12853;DHT22;6495;51.808;7.478;2022-11-03T08:11:48;11.90;99.90
12853;DHT22;6495;51.808;7.478;2022-11-03T08:14:16;11.90;99.90
12853;DHT22;6495;51.808;7.478;2022-11-03T08:16:44;11.90;99.90
12853;DHT22;6495;51.808;7.478;2022-11-03T08:19:12;11.90;99.90
12853;DHT22;6495;51.808;7.478;2022-11-03T08:21:41;12.00;99.90
12853;DHT22;6495;51.808;7.478;2022-11-03T08:24:09;12.00;99.90
12853;DHT22;6495;51.808;7.478;2022-11-03T08:26:37;12.00;99.90
12853;DHT22;6495;51.808;7.478;2022-11-03T08:29:05;12.10;99.90
12853;DHT22;6495;51.808;7.478;2022-11-03T08:31:33;12.10;99.90
12853;DHT22;6495;51.808;7.478;2022-11-03T08:34:01;12.20;99.90
12853;DHT22;6495;51.808;7.478;2022-11-03T08:36:29;12.20;99.90
12853;DHT22;6495;51.808;7.478;2022-11-03T08:38:58;12.30;99.90
12853;DHT22;6495;51.808;7.478;2022-11-03T08:41:26;12.30;99.90
12853;DHT22;6495;51.808;7.478;2022-11-03T08:43:54;12.40;99.90
12853;DHT22;6495;51.808;7.478;2022-11-03T08:46:22;12.40;99.90
12853;DHT22;6495;51.808;7.478;2022-11-03T08:48:50;12.40;99.90
12853;DHT22;6495;51.808;7.478;2022-11-03T08:51:19;12.50;99.90
12853;DHT22;6495;51.808;7.478;2022-11-03T08:53:47;12.50;99.90
12853;DHT22;6495;51.808;7.478;2022-11-03T08:56:17;12.50;99.90
12853;DHT22;6495;51.808;7.478;2022-11-03T08:58:48;12.60;99.90
12853;DHT22;6495;51.808;7.478;2022-11-03T09:01:16;12.60;99.90
12853;DHT22;6495;51.808;7.478;2022-11-03T09:03:44;12.60;99.90
12853;DHT22;6495;51.808;7.478;2022-11-03T09:06:12;12.70;99.90
12853;DHT22;6495;51.808;7.478;2022-11-03T09:08:40;12.70;99.90
12853;DHT22;6495;51.808;7.478;2022-11-03T09:11:37;12.70;99.90
12853;DHT22;6495;51.808;7.478;2022-11-03T09:14:05;12.80;99.90
12853;DHT22;6495;51.808;7.478;2022-11-03T09:16:33;12.80;99.90
12853;DHT22;6495;51.808;7.478;2022-11-03T09:19:01;12.80;99.90
12853;DHT22;6495;51.808;7.478;2022-11-03T09:21:29;12.90;99.90
12853;DHT22;6495;51.808;7.478;2022-11-03T09:23:57;12.90;99.90
12853;DHT22;6495;51.808;7.478;2022-11-03T09:26:26;12.90;99.90
12853;DHT22;6495;51.808;7.478;2022-11-03T09:28:55;13.00;99.90
12853;DHT22;6495;51.808;7.478;2022-11-03T09:31:23;13.00;99.90
12853;DHT22;6495;51.808;7.478;2022-11-03T09:33:54;13.10;99.90
12853;DHT22;6495;51.808;7.478;2022-11-03T09:36:22;13.10;99.90
12853;DHT22;6495;51.808;7.478;2022-11-03T09:38:50;13.10;99.90
12853;DHT22;6495;51.808;7.478;2022-11-03T09:41:19;13.10;99.90
12853;DHT22;6495;51.808;7.478;2022-11-03T09:44:02;13.20;99.90
12853;DHT22;6495;51.808;7.478;2022-11-03T09:46:32;13.20;99.90
12853;DHT22;6495;51.808;7.478;2022-11-03T09:49:02;13.20;99.90
12853;DHT22;6495;51.808;7.478;2022-11-03T09:51:34;13.30;99.90
12853;DHT22;6495;51.808;7.478;2022-11-03T09:54:03;13.30;99.90
12853;DHT22;6495;51.808;7.478;2022-11-03T09:56:35;13.30;99.90
12853;DHT22;6495;51.808;7.478;2022-11-03T09:59:12;13.40;99.90
12853;DHT22;6495;51.808;7.478;2022-11-03T10:01:43;13.40;99.90
12853;DHT22;6495;51.808;7.478;2022-11-03T10:04:15;13.50;99.90
12853;DHT22;6495;51.808;7.478;2022-11-03T10:06:45;13.50;99.90
12853;DHT22;6495;51.808;7.478;2022-11-03T10:09:15;13.60;99.90
12853;DHT22;6495;51.808;7.478;2022-11-03T10:11:46;13.60;99.90
12853;DHT22;6495;51.808;7.478;2022-11-03T10:14:17;13.70;99.90
12853;DHT22;6495;51.808;7.478;2022-11-03T10:16:51;13.80;99.90
12853;DHT22;6495;51.808;7.478;2022-11-03T10:19:22;13.80;99.90
12853;DHT22;6495;51.808;7.478;2022-11-03T10:21:51;13.90;99.90
12853;DHT22;6495;51.808;7.478;2022-11-03T10:24:19;13.90;99.90
12853;DHT22;6495;51.808;7.478;2022-11-03T10:26:49;13.90;99.90
12853;DHT22;6495;51.808;7.478;2022-11-03T10:29:22;14.00;99.90
12853;DHT22;6495;51.808;7.478;2022-11-03T10:31:53;14.10;99.90
12853;DHT22;6495;51.808;7.478;2022-11-03T10:34:25;14.10;99.90
12853;DHT22;6495;51.808;7.478;2022-11-03T10:37:15;14.20;99.90
12853;DHT22;6495;51.808;7.478;2022-11-03T10:39:47;14.30;99.90
12853;DHT22;6495;51.808;7.478;2022-11-03T10:42:18;14.40;99.90
12853;DHT22;6495;51.808;7.478;2022-11-03T10:44:51;14.40;99.90
12853;DHT22;6495;51.808;7.478;2022-11-03T10:47:23;14.50;99.90
12853;DHT22;6495;51.808;7.478;2022-11-03T10:49:53;14.50;99.90
12853;DHT22;6495;51.808;7.478;2022-11-03T10:52:23;14.60;99.90
12853;DHT22;6495;51.808;7.478;2022-11-03T10:54:53;14.60;99.90
12853;DHT22;6495;51.808;7.478;2022-11-03T10:57:24;14.60;99.90
12853;DHT22;6495;51.808;7.478;2022-11-03T10:59:55;14.60;99.90
12853;DHT22;6495;51.808;7.478;2022-11-03T11:02:28;14.60;99.90
12853;DHT22;6495;51.808;7.478;2022-11-03T11:05:18;14.60;99.90
12853;DHT22;6495;51.808;7.478;2022-11-03T11:07:49;14.60;99.90
12853;DHT22;6495;51.808;7.478;2022-11-03T11:10:21;14.60;99.90
12853;DHT22;6495;51.808;7.478;2022-11-03T11:13:23;14.60;99.90
12853;DHT22;6495;51.808;7.478;2022-11-03T11:19:13;14.60;99.90
12853;DHT22;6495;51.808;7.478;2022-11-03T11:21:56;14.60;99.90
12853;DHT22;6495;51.808;7.478;2022-11-03T11:25:01;14.60;99.90
12853;DHT22;6495;51.808;7.478;2022-11-03T11:31:00;14.60;99.90
12853;DHT22;6495;51.808;7.478;2022-11-03T11:37:55;14.60;99.90
12853;DHT22;6495;51.808;7.478;2022-11-03T11:40:49;14.60;99.90
12853;DHT22;6495;51.808;7.478;2022-11-03T11:43:44;14.60;99.90
12853;DHT22;6495;51.808;7.478;2022-11-03T11:46:37;14.70;99.90
12853;DHT22;6495;51.808;7.478;2022-11-03T11:49:16;14.70;99.90
12853;DHT22;6495;51.808;7.478;2022-11-03T11:51:45;14.70;99.90
12853;DHT22;6495;51.808;7.478;2022-11-03T11:54:27;14.60;99.90
12853;DHT22;6495;51.808;7.478;2022-11-03T11:57:19;14.70;99.90
12853;DHT22;6495;51.808;7.478;2022-11-03T12:00:52;14.70;99.90
12853;DHT22;6495;51.808;7.478;2022-11-03T12:03:38;14.70;99.90
12853;DHT22;6495;51.808;7.478;2022-11-03T12:06:41;14.70;99.90
12853;DHT22;6495;51.808;7.478;2022-11-03T12:13:49;14.80;99.90
12853;DHT22;6495;51.808;7.478;2022-11-03T12:16:33;14.90;99.90
12853;DHT22;6495;51.808;7.478;2022-11-03T12:19:39;14.90;99.90
12853;DHT22;6495;51.808;7.478;2022-11-03T12:25:33;15.10;99.90
12853;DHT22;6495;51.808;7.478;2022-11-03T12:28:03;15.20;99.90
12853;DHT22;6495;51.808;7.478;2022-11-03T12:30:32;15.20;99.90
12853;DHT22;6495;51.808;7.478;2022-11-03T12:33:05;15.30;99.90
12853;DHT22;6495;51.808;7.478;2022-11-03T12:35:36;15.30;99.90
12853;DHT22;6495;51.808;7.478;2022-11-03T12:38:04;15.40;99.90
12853;DHT22;6495;51.808;7.478;2022-11-03T12:40:32;15.40;99.90
12853;DHT22;6495;51.808;7.478;2022-11-03T12:43:00;15.50;99.90
12853;DHT22;6495;51.808;7.478;2022-11-03T12:45:28;15.50;99.90
12853;DHT22;6495;51.808;7.478;2022-11-03T12:47:57;15.50;99.90
12853;DHT22;6495;51.808;7.478;2022-11-03T12:50:49;15.50;99.90
12853;DHT22;6495;51.808;7.478;2022-11-03T12:53:29;15.50;99.90
12853;DHT22;6495;51.808;7.478;2022-11-03T12:56:35;15.60;99.90
12853;DHT22;6495;51.808;7.478;2022-11-03T12:59:14;15.60;99.90
12853;DHT22;6495;51.808;7.478;2022-11-03T13:02:16;15.60;99.90
12853;DHT22;6495;51.808;7.478;2022-11-03T13:05:06;15.60;99.90
12853;DHT22;6495;51.808;7.478;2022-11-03T13:07:42;15.60;99.90
12853;DHT22;6495;51.808;7.478;2022-11-03T13:13:57;15.70;99.90
12853;DHT22;6495;51.808;7.478;2022-11-03T13:16:54;15.70;99.90
12853;DHT22;6495;51.808;7.478;2022-11-03T13:20:15;15.70;99.90
12853;DHT22;6495;51.808;7.478;2022-11-03T13:23:03;15.70;99.90
12853;DHT22;6495;51.808;7.478;2022-11-03T13:25:32;15.70;99.90
12853;DHT22;6495;51.808;7.478;2022-11-03T13:28:05;15.70;99.90
12853;DHT22;6495;51.808;7.478;2022-11-03T13:30:40;15.70;99.90
12853;DHT22;6495;51.808;7.478;2022-11-03T13:33:40;15.70;99.90
12853;DHT22;6495;51.808;7.478;2022-11-03T13:36:09;15.70;99.90
12853;DHT22;6495;51.808;7.478;2022-11-03T13:38:39;15.70;99.90
12853;DHT22;6495;51.808;7.478;2022-11-03T13:41:07;15.70;99.90
12853;DHT22;6495;51.808;7.478;2022-11-03T13:43:35;15.70;99.90
12853;DHT22;6495;51.808;7.478;2022-11-03T13:46:03;15.80;99.90
12853;DHT22;6495;51.808;7.478;2022-11-03T13:48:31;15.70;99.90
12853;DHT22;6495;51.808;7.478;2022-11-03T13:51:19;15.70;99.90
12853;DHT22;6495;51.808;7.478;2022-11-03T13:53:49;15.70;99.90
12853;DHT22;6495;51.808;7.478;2022-11-03T13:56:37;15.70;99.90
12853;DHT22;6495;51.808;7.478;2022-11-03T13:59:25;15.70;99.90
12853;DHT22;6495;51.808;7.478;2022-11-03T14:01:54;15.70;99.90
12853;DHT22;6495;51.808;7.478;2022-11-03T14:04:42;15.70;99.90
12853;DHT22;6495;51.808;7.478;2022-11-03T14:07:10;15.70;99.90
12853;DHT22;6495;51.808;7.478;2022-11-03T14:09:40;15.70;99.90
12853;DHT22;6495;51.808;7.478;2022-11-03T14:12:08;15.70;99.90
12853;DHT22;6495;51.808;7.478;2022-11-03T14:15:05;15.70;99.90
12853;DHT22;6495;51.808;7.478;2022-11-03T14:17:35;15.70;99.90
12853;DHT22;6495;51.808;7.478;2022-11-03T14:20:04;15.70;99.90
12853;DHT22;6495;51.808;7.478;2022-11-03T14:22:35;15.60;99.90
12853;DHT22;6495;51.808;7.478;2022-11-03T14:25:05;15.60;99.90
12853;DHT22;6495;51.808;7.478;2022-11-03T14:27:34;15.60;99.90
12853;DHT22;6495;51.808;7.478;2022-11-03T14:30:03;15.60;99.90
12853;DHT22;6495;51.808;7.478;2022-11-03T14:32:32;15.60;99.90
12853;DHT22;6495;51.808;7.478;2022-11-03T14:35:00;15.60;99.90
12853;DHT22;6495;51.808;7.478;2022-11-03T14:37:28;15.50;99.90
12853;DHT22;6495;51.808;7.478;2022-11-03T14:39:56;15.50;99.90
12853;DHT22;6495;51.808;7.478;2022-11-03T14:42:25;15.50;99.90
12853;DHT22;6495;51.808;7.478;2022-11-03T14:44:53;15.50;99.90
12853;DHT22;6495;51.808;7.478;2022-11-03T14:47:21;15.50;99.90
12853;DHT22;6495;51.808;7.478;2022-11-03T14:49:49;15.50;99.90
12853;DHT22;6495;51.808;7.478;2022-11-03T14:52:17;15.50;99.90
12853;DHT22;6495;51.808;7.478;2022-11-03T14:54:45;15.50;99.90
12853;DHT22;6495;51.808;7.478;2022-11-03T14:57:13;15.50;99.90
12853;DHT22;6495;51.808;7.478;2022-11-03T14:59:43;15.40;99.90
12853;DHT22;6495;51.808;7.478;2022-11-03T15:02:17;15.40;99.90
12853;DHT22;6495;51.808;7.478;2022-11-03T15:04:45;15.40;99.90
12853;DHT22;6495;51.808;7.478;2022-11-03T15:07:13;15.40;99.90
12853;DHT22;6495;51.808;7.478;2022-11-03T15:09:41;15.30;99.90
12853;DHT22;6495;51.808;7.478;2022-11-03T15:12:10;15.30;99.90
12853;DHT22;6495;51.808;7.478;2022-11-03T15:14:37;15.30;99.90
12853;DHT22;6495;51.808;7.478;2022-11-03T15:17:07;15.20;99.90
12853;DHT22;6495;51.808;7.478;2022-11-03T15:19:35;15.20;99.90
12853;DHT22;6495;51.808;7.478;2022-11-03T15:22:03;15.30;99.90
12853;DHT22;6495;51.808;7.478;2022-11-03T15:24:31;15.20;99.90
12853;DHT22;6495;51.808;7.478;2022-11-03T15:27:19;15.20;99.90
12853;DHT22;6495;51.808;7.478;2022-11-03T15:29:47;15.20;99.90
12853;DHT22;6495;51.808;7.478;2022-11-03T15:32:16;15.20;99.90
12853;DHT22;6495;51.808;7.478;2022-11-03T15:34:44;15.20;99.90
12853;DHT22;6495;51.808;7.478;2022-11-03T15:37:12;15.20;99.90
12853;DHT22;6495;51.808;7.478;2022-11-03T15:39:41;15.20;99.90
12853;DHT22;6495;51.808;7.478;2022-11-03T15:42:09;15.10;99.90
12853;DHT22;6495;51.808;7.478;2022-11-03T15:44:37;15.10;99.90
12853;DHT22;6495;51.808;7.478;2022-11-03T15:47:05;15.10;99.90
12853;DHT22;6495;51.808;7.478;2022-11-03T15:49:35;15.00;99.90
12853;DHT22;6495;51.808;7.478;2022-11-03T15:52:03;15.00;99.90
12853;DHT22;6495;51.808;7.478;2022-11-03T15:54:32;14.90;99.90
12853;DHT22;6495;51.808;7.478;2022-11-03T15:57:07;14.90;99.90
12853;DHT22;6495;51.808;7.478;2022-11-03T15:59:35;14.90;99.90
12853;DHT22;6495;51.808;7.478;2022-11-03T16:02:04;14.80;99.90
12853;DHT22;6495;51.808;7.478;2022-11-03T16:04:54;14.80;99.90
12853;DHT22;6495;51.808;7.478;2022-11-03T16:07:22;14.70;99.90
12853;DHT22;6495;51.808;7.478;2022-11-03T16:09:50;14.70;99.90
12853;DHT22;6495;51.808;7.478;2022-11-03T16:12:18;14.70;99.90
12853;DHT22;6495;51.808;7.478;2022-11-03T16:14:49;14.60;99.90
12853;DHT22;6495;51.808;7.478;2022-11-03T16:17:17;14.60;99.90
12853;DHT22;6495;51.808;7.478;2022-11-03T16:19:48;14.60;99.90
12853;DHT22;6495;51.808;7.478;2022-11-03T16:22:17;14.50;99.90
12853;DHT22;6495;51.808;7.478;2022-11-03T16:24:45;14.50;99.90
12853;DHT22;6495;51.808;7.478;2022-11-03T16:27:14;14.40;99.90
12853;DHT22;6495;51.808;7.478;2022-11-03T16:29:42;14.40;99.90
12853;DHT22;6495;51.808;7.478;2022-11-03T16:32:10;14.40;99.90
12853;DHT22;6495;51.808;7.478;2022-11-03T16:34:38;14.30;99.90
12853;DHT22;6495;51.808;7.478;2022-11-03T16:37:06;14.30;99.90
12853;DHT22;6495;51.808;7.478;2022-11-03T16:39:35;14.30;99.90
12853;DHT22;6495;51.808;7.478;2022-11-03T16:42:04;14.20;99.90
12853;DHT22;6495;51.808;7.478;2022-11-03T16:44:33;14.20;99.90
12853;DHT22;6495;51.808;7.478;2022-11-03T16:47:01;14.10;99.90